sensor_id;sensor_type;location;lat;lon;timestamp;P1;durP1;ratioP1;P2;durP2;ratioP2
9918;SDS011;4998;51.024;13.828;2023-01-23T00:00:37;11.97;;;9.43;;
9918;SDS011;4998;51.024;13.828;2023-01-23T00:03:05;13.30;;;8.77;;
9918;SDS011;4998;51.024;13.828;2023-01-23T00:05:32;12.90;;;9.13;;
9918;SDS011;4998;51.024;13.828;2023-01-23T00:07:59;14.10;;;9.63;;
9918;SDS011;4998;51.024;13.828;2023-01-23T00:10:28;11.50;;;8.20;;
9918;SDS011;4998;51.024;13.828;2023-01-23T00:12:55;12.43;;;9.17;;
9918;SDS011;4998;51.024;13.828;2023-01-23T00:15:22;14.17;;;9.43;;
9918;SDS011;4998;51.024;13.828;2023-01-23T00:17:49;14.43;;;9.43;;
9918;SDS011;4998;51.024;13.828;2023-01-23T00:20:16;14.13;;;9.60;;
9918;SDS011;4998;51.024;13.828;2023-01-23T00:22:43;13.93;;;9.60;;
9918;SDS011;4998;51.024;13.828;2023-01-23T00:25:10;13.87;;;9.93;;
9918;SDS011;4998;51.024;13.828;2023-01-23T00:27:39;14.37;;;9.13;;
9918;SDS011;4998;51.024;13.828;2023-01-23T00:30:08;13.20;;;9.30;;
9918;SDS011;4998;51.024;13.828;2023-01-23T00:32:37;11.80;;;8.60;;
9918;SDS011;4998;51.024;13.828;2023-01-23T00:35:05;13.50;;;9.00;;
9918;SDS011;4998;51.024;13.828;2023-01-23T00:37:32;13.23;;;9.37;;
9918;SDS011;4998;51.024;13.828;2023-01-23T00:39:59;15.57;;;9.33;;
9918;SDS011;4998;51.024;13.828;2023-01-23T00:42:27;11.87;;;8.70;;
9918;SDS011;4998;51.024;13.828;2023-01-23T00:44:56;13.90;;;8.30;;
9918;SDS011;4998;51.024;13.828;2023-01-23T00:47:23;13.10;;;8.90;;
9918;SDS011;4998;51.024;13.828;2023-01-23T00:49:57;13.17;;;9.03;;
9918;SDS011;4998;51.024;13.828;2023-01-23T00:52:24;13.07;;;8.50;;
9918;SDS011;4998;51.024;13.828;2023-01-23T00:54:51;11.30;;;8.80;;
9918;SDS011;4998;51.024;13.828;2023-01-23T00:57:18;14.80;;;9.70;;
9918;SDS011;4998;51.024;13.828;2023-01-23T00:59:45;13.80;;;9.40;;
9918;SDS011;4998;51.024;13.828;2023-01-23T01:02:14;13.93;;;9.37;;
9918;SDS011;4998;51.024;13.828;2023-01-23T01:04:41;12.60;;;8.50;;
9918;SDS011;4998;51.024;13.828;2023-01-23T01:07:08;14.03;;;9.13;;
9918;SDS011;4998;51.024;13.828;2023-01-23T01:09:35;15.23;;;8.43;;
9918;SDS011;4998;51.024;13.828;2023-01-23T01:12:01;13.40;;;8.63;;
9918;SDS011;4998;51.024;13.828;2023-01-23T01:14:29;13.97;;;9.47;;
9918;SDS011;4998;51.024;13.828;2023-01-23T01:16:56;11.10;;;8.50;;
9918;SDS011;4998;51.024;13.828;2023-01-23T01:19:24;12.50;;;8.70;;
9918;SDS011;4998;51.024;13.828;2023-01-23T01:21:52;12.30;;;8.70;;
9918;SDS011;4998;51.024;13.828;2023-01-23T01:24:19;10.27;;;8.10;;
9918;SDS011;4998;51.024;13.828;2023-01-23T01:26:46;13.13;;;8.90;;
9918;SDS011;4998;51.024;13.828;2023-01-23T01:29:13;10.47;;;8.50;;
9918;SDS011;4998;51.024;13.828;2023-01-23T01:31:40;12.60;;;8.10;;
9918;SDS011;4998;51.024;13.828;2023-01-23T01:34:07;11.43;;;8.30;;
9918;SDS011;4998;51.024;13.828;2023-01-23T01:36:35;11.77;;;7.60;;
9918;SDS011;4998;51.024;13.828;2023-01-23T01:39:02;13.20;;;9.20;;
9918;SDS011;4998;51.024;13.828;2023-01-23T01:41:29;11.13;;;7.60;;
9918;SDS011;4998;51.024;13.828;2023-01-23T01:43:56;9.97;;;8.27;;
9918;SDS011;4998;51.024;13.828;2023-01-23T01:46:24;13.83;;;8.77;;
9918;SDS011;4998;51.024;13.828;2023-01-23T01:48:59;12.20;;;8.27;;
9918;SDS011;4998;51.024;13.828;2023-01-23T01:51:34;13.47;;;8.77;;
9918;SDS011;4998;51.024;13.828;2023-01-23T01:54:08;10.87;;;8.13;;
9918;SDS011;4998;51.024;13.828;2023-01-23T01:56:50;10.53;;;7.90;;
9918;SDS011;4998;51.024;13.828;2023-01-23T01:59:20;10.97;;;8.00;;
9918;SDS011;4998;51.024;13.828;2023-01-23T02:01:50;9.73;;;7.80;;
9918;SDS011;4998;51.024;13.828;2023-01-23T02:04:21;12.17;;;8.47;;
9918;SDS011;4998;51.024;13.828;2023-01-23T02:06:50;11.97;;;8.40;;
9918;SDS011;4998;51.024;13.828;2023-01-23T02:09:20;12.20;;;7.90;;
9918;SDS011;4998;51.024;13.828;2023-01-23T02:11:50;12.43;;;8.20;;
9918;SDS011;4998;51.024;13.828;2023-01-23T02:14:17;9.70;;;7.73;;
9918;SDS011;4998;51.024;13.828;2023-01-23T02:16:44;11.80;;;8.27;;
9918;SDS011;4998;51.024;13.828;2023-01-23T02:19:18;9.67;;;7.30;;
9918;SDS011;4998;51.024;13.828;2023-01-23T02:21:59;11.20;;;8.20;;
9918;SDS011;4998;51.024;13.828;2023-01-23T02:24:34;9.77;;;7.27;;
9918;SDS011;4998;51.024;13.828;2023-01-23T02:27:08;10.90;;;7.67;;
9918;SDS011;4998;51.024;13.828;2023-01-23T02:29:39;10.37;;;7.80;;
9918;SDS011;4998;51.024;13.828;2023-01-23T02:32:08;11.53;;;7.90;;
9918;SDS011;4998;51.024;13.828;2023-01-23T02:34:35;11.53;;;8.30;;
9918;SDS011;4998;51.024;13.828;2023-01-23T02:37:02;11.70;;;7.67;;
9918;SDS011;4998;51.024;13.828;2023-01-23T02:39:31;11.63;;;7.50;;
9918;SDS011;4998;51.024;13.828;2023-01-23T02:41:58;9.93;;;7.63;;
9918;SDS011;4998;51.024;13.828;2023-01-23T02:44:29;10.20;;;7.37;;
9918;SDS011;4998;51.024;13.828;2023-01-23T02:46:57;10.47;;;7.70;;
9918;SDS011;4998;51.024;13.828;2023-01-23T02:49:28;11.90;;;8.17;;
9918;SDS011;4998;51.024;13.828;2023-01-23T02:51:55;10.63;;;8.10;;
9918;SDS011;4998;51.024;13.828;2023-01-23T02:54:22;10.47;;;8.13;;
9918;SDS011;4998;51.024;13.828;2023-01-23T02:56:50;11.10;;;8.37;;
9918;SDS011;4998;51.024;13.828;2023-01-23T02:59:17;10.90;;;7.93;;
9918;SDS011;4998;51.024;13.828;2023-01-23T03:02:03;11.03;;;7.23;;
9918;SDS011;4998;51.024;13.828;2023-01-23T03:04:30;9.90;;;7.90;;
9918;SDS011;4998;51.024;13.828;2023-01-23T03:06:57;10.30;;;7.30;;
9918;SDS011;4998;51.024;13.828;2023-01-23T03:09:25;10.70;;;8.17;;
9918;SDS011;4998;51.024;13.828;2023-01-23T03:11:52;10.27;;;7.77;;
9918;SDS011;4998;51.024;13.828;2023-01-23T03:14:20;11.33;;;7.77;;
9918;SDS011;4998;51.024;13.828;2023-01-23T03:16:48;11.13;;;7.50;;
9918;SDS011;4998;51.024;13.828;2023-01-23T03:19:20;10.03;;;7.20;;
9918;SDS011;4998;51.024;13.828;2023-01-23T03:21:48;9.27;;;7.47;;
9918;SDS011;4998;51.024;13.828;2023-01-23T03:24:16;11.93;;;8.43;;
9918;SDS011;4998;51.024;13.828;2023-01-23T03:26:45;9.87;;;7.77;;
9918;SDS011;4998;51.024;13.828;2023-01-23T03:29:14;11.47;;;8.10;;
9918;SDS011;4998;51.024;13.828;2023-01-23T03:31:59;10.47;;;7.67;;
9918;SDS011;4998;51.024;13.828;2023-01-23T03:34:29;12.43;;;8.47;;
9918;SDS011;4998;51.024;13.828;2023-01-23T03:36:56;9.07;;;7.40;;
9918;SDS011;4998;51.024;13.828;2023-01-23T03:39:24;10.37;;;7.30;;
9918;SDS011;4998;51.024;13.828;2023-01-23T03:42:09;9.17;;;7.40;;
9918;SDS011;4998;51.024;13.828;2023-01-23T03:44:36;12.90;;;8.40;;
9918;SDS011;4998;51.024;13.828;2023-01-23T03:47:03;9.13;;;7.10;;
9918;SDS011;4998;51.024;13.828;2023-01-23T03:49:32;10.50;;;7.60;;
9918;SDS011;4998;51.024;13.828;2023-01-23T03:51:59;10.50;;;7.47;;
9918;SDS011;4998;51.024;13.828;2023-01-23T03:54:26;12.37;;;8.27;;
9918;SDS011;4998;51.024;13.828;2023-01-23T03:56:53;11.03;;;8.07;;
9918;SDS011;4998;51.024;13.828;2023-01-23T03:59:21;13.27;;;8.30;;
9918;SDS011;4998;51.024;13.828;2023-01-23T04:01:48;13.67;;;7.93;;
9918;SDS011;4998;51.024;13.828;2023-01-23T04:04:14;10.57;;;7.80;;
9918;SDS011;4998;51.024;13.828;2023-01-23T04:06:43;11.30;;;8.00;;
9918;SDS011;4998;51.024;13.828;2023-01-23T04:09:10;12.00;;;8.40;;
9918;SDS011;4998;51.024;13.828;2023-01-23T04:11:37;9.77;;;7.70;;
9918;SDS011;4998;51.024;13.828;2023-01-23T04:14:04;9.87;;;7.53;;
9918;SDS011;4998;51.024;13.828;2023-01-23T04:16:31;10.60;;;8.00;;
9918;SDS011;4998;51.024;13.828;2023-01-23T04:18:59;10.80;;;8.10;;
9918;SDS011;4998;51.024;13.828;2023-01-23T04:21:26;12.20;;;8.30;;
9918;SDS011;4998;51.024;13.828;2023-01-23T04:23:54;10.57;;;8.47;;
9918;SDS011;4998;51.024;13.828;2023-01-23T04:26:21;12.27;;;8.27;;
9918;SDS011;4998;51.024;13.828;2023-01-23T04:28:48;10.53;;;7.93;;
9918;SDS011;4998;51.024;13.828;2023-01-23T04:31:15;9.03;;;7.40;;
9918;SDS011;4998;51.024;13.828;2023-01-23T04:33:42;11.67;;;7.60;;
9918;SDS011;4998;51.024;13.828;2023-01-23T04:36:09;8.63;;;7.30;;
9918;SDS011;4998;51.024;13.828;2023-01-23T04:38:36;12.83;;;8.40;;
9918;SDS011;4998;51.024;13.828;2023-01-23T04:41:05;12.63;;;8.80;;
9918;SDS011;4998;51.024;13.828;2023-01-23T04:43:32;12.13;;;8.50;;
9918;SDS011;4998;51.024;13.828;2023-01-23T04:46:00;14.00;;;8.07;;
9918;SDS011;4998;51.024;13.828;2023-01-23T04:48:27;10.30;;;8.17;;
9918;SDS011;4998;51.024;13.828;2023-01-23T04:50:53;11.10;;;8.27;;
9918;SDS011;4998;51.024;13.828;2023-01-23T04:53:20;12.17;;;8.60;;
9918;SDS011;4998;51.024;13.828;2023-01-23T04:55:47;10.07;;;7.83;;
9918;SDS011;4998;51.024;13.828;2023-01-23T04:58:16;12.77;;;8.97;;
9918;SDS011;4998;51.024;13.828;2023-01-23T05:00:44;12.40;;;8.97;;
9918;SDS011;4998;51.024;13.828;2023-01-23T05:03:11;12.27;;;8.60;;
9918;SDS011;4998;51.024;13.828;2023-01-23T05:05:38;11.00;;;7.83;;
9918;SDS011;4998;51.024;13.828;2023-01-23T05:08:07;11.33;;;8.03;;
9918;SDS011;4998;51.024;13.828;2023-01-23T05:10:34;12.30;;;8.50;;
9918;SDS011;4998;51.024;13.828;2023-01-23T05:13:01;10.87;;;8.50;;
9918;SDS011;4998;51.024;13.828;2023-01-23T05:15:29;9.93;;;8.33;;
9918;SDS011;4998;51.024;13.828;2023-01-23T05:17:56;11.33;;;8.30;;
9918;SDS011;4998;51.024;13.828;2023-01-23T05:20:23;10.80;;;7.67;;
9918;SDS011;4998;51.024;13.828;2023-01-23T05:22:51;13.07;;;8.60;;
9918;SDS011;4998;51.024;13.828;2023-01-23T05:25:19;12.30;;;8.40;;
9918;SDS011;4998;51.024;13.828;2023-01-23T05:27:47;12.07;;;8.80;;
9918;SDS011;4998;51.024;13.828;2023-01-23T05:30:15;13.17;;;9.07;;
9918;SDS011;4998;51.024;13.828;2023-01-23T05:32:44;11.97;;;8.03;;
9918;SDS011;4998;51.024;13.828;2023-01-23T05:35:11;11.63;;;8.30;;
9918;SDS011;4998;51.024;13.828;2023-01-23T05:37:39;13.17;;;9.00;;
9918;SDS011;4998;51.024;13.828;2023-01-23T05:40:07;13.80;;;9.30;;
9918;SDS011;4998;51.024;13.828;2023-01-23T05:42:36;13.23;;;8.47;;
9918;SDS011;4998;51.024;13.828;2023-01-23T05:45:03;12.57;;;8.93;;
9918;SDS011;4998;51.024;13.828;2023-01-23T05:47:31;16.27;;;10.23;;
9918;SDS011;4998;51.024;13.828;2023-01-23T05:49:59;16.40;;;9.90;;
9918;SDS011;4998;51.024;13.828;2023-01-23T05:52:27;14.03;;;9.17;;
9918;SDS011;4998;51.024;13.828;2023-01-23T05:54:54;16.13;;;10.70;;
9918;SDS011;4998;51.024;13.828;2023-01-23T05:57:21;15.77;;;10.70;;
9918;SDS011;4998;51.024;13.828;2023-01-23T05:59:48;15.20;;;9.97;;
9918;SDS011;4998;51.024;13.828;2023-01-23T06:02:15;17.77;;;11.10;;
9918;SDS011;4998;51.024;13.828;2023-01-23T06:04:42;18.63;;;10.67;;
9918;SDS011;4998;51.024;13.828;2023-01-23T06:07:16;15.60;;;10.67;;
9918;SDS011;4998;51.024;13.828;2023-01-23T06:09:44;15.87;;;10.30;;
9918;SDS011;4998;51.024;13.828;2023-01-23T06:12:12;14.07;;;9.10;;
9918;SDS011;4998;51.024;13.828;2023-01-23T06:14:39;15.43;;;10.00;;
9918;SDS011;4998;51.024;13.828;2023-01-23T06:17:06;15.10;;;10.00;;
9918;SDS011;4998;51.024;13.828;2023-01-23T06:19:33;20.00;;;10.50;;
9918;SDS011;4998;51.024;13.828;2023-01-23T06:22:00;16.30;;;10.70;;
9918;SDS011;4998;51.024;13.828;2023-01-23T06:24:28;16.67;;;10.50;;
9918;SDS011;4998;51.024;13.828;2023-01-23T06:26:55;16.50;;;10.80;;
9918;SDS011;4998;51.024;13.828;2023-01-23T06:29:22;16.73;;;10.37;;
9918;SDS011;4998;51.024;13.828;2023-01-23T06:31:50;18.60;;;10.60;;
9918;SDS011;4998;51.024;13.828;2023-01-23T06:34:17;19.00;;;10.87;;
9918;SDS011;4998;51.024;13.828;2023-01-23T06:36:44;15.77;;;10.20;;
9918;SDS011;4998;51.024;13.828;2023-01-23T06:39:12;16.60;;;10.30;;
9918;SDS011;4998;51.024;13.828;2023-01-23T06:41:41;14.67;;;10.00;;
9918;SDS011;4998;51.024;13.828;2023-01-23T06:44:08;16.30;;;10.83;;
9918;SDS011;4998;51.024;13.828;2023-01-23T06:46:35;16.53;;;10.37;;
9918;SDS011;4998;51.024;13.828;2023-01-23T06:49:03;16.37;;;10.97;;
9918;SDS011;4998;51.024;13.828;2023-01-23T06:51:30;17.10;;;11.10;;
9918;SDS011;4998;51.024;13.828;2023-01-23T06:53:58;14.20;;;9.90;;
9918;SDS011;4998;51.024;13.828;2023-01-23T06:56:25;17.40;;;10.70;;
9918;SDS011;4998;51.024;13.828;2023-01-23T06:58:54;17.70;;;11.03;;
9918;SDS011;4998;51.024;13.828;2023-01-23T07:01:22;18.00;;;11.30;;
9918;SDS011;4998;51.024;13.828;2023-01-23T07:03:50;15.90;;;10.77;;
9918;SDS011;4998;51.024;13.828;2023-01-23T07:06:17;15.80;;;10.50;;
9918;SDS011;4998;51.024;13.828;2023-01-23T07:08:44;17.63;;;10.77;;
9918;SDS011;4998;51.024;13.828;2023-01-23T07:11:11;16.63;;;11.13;;
9918;SDS011;4998;51.024;13.828;2023-01-23T07:13:38;18.80;;;10.93;;
9918;SDS011;4998;51.024;13.828;2023-01-23T07:16:07;15.77;;;10.40;;
9918;SDS011;4998;51.024;13.828;2023-01-23T07:18:34;15.70;;;10.03;;
9918;SDS011;4998;51.024;13.828;2023-01-23T07:21:02;14.73;;;10.03;;
9918;SDS011;4998;51.024;13.828;2023-01-23T07:23:31;19.00;;;11.27;;
9918;SDS011;4998;51.024;13.828;2023-01-23T07:25:58;16.03;;;10.07;;
9918;SDS011;4998;51.024;13.828;2023-01-23T07:28:27;16.10;;;10.57;;
9918;SDS011;4998;51.024;13.828;2023-01-23T07:30:55;18.60;;;11.10;;
9918;SDS011;4998;51.024;13.828;2023-01-23T07:33:24;14.87;;;9.90;;
9918;SDS011;4998;51.024;13.828;2023-01-23T07:35:51;15.80;;;10.87;;
9918;SDS011;4998;51.024;13.828;2023-01-23T07:38:18;15.97;;;10.67;;
9918;SDS011;4998;51.024;13.828;2023-01-23T07:40:47;17.60;;;11.87;;
9918;SDS011;4998;51.024;13.828;2023-01-23T07:43:14;14.97;;;10.17;;
9918;SDS011;4998;51.024;13.828;2023-01-23T07:45:41;18.70;;;11.43;;
9918;SDS011;4998;51.024;13.828;2023-01-23T07:48:08;16.10;;;10.80;;
9918;SDS011;4998;51.024;13.828;2023-01-23T07:50:37;16.50;;;10.60;;
9918;SDS011;4998;51.024;13.828;2023-01-23T07:53:04;15.73;;;10.27;;
9918;SDS011;4998;51.024;13.828;2023-01-23T07:55:31;13.57;;;9.80;;
9918;SDS011;4998;51.024;13.828;2023-01-23T07:57:59;17.40;;;10.67;;
9918;SDS011;4998;51.024;13.828;2023-01-23T08:00:26;18.47;;;10.90;;
9918;SDS011;4998;51.024;13.828;2023-01-23T08:02:53;16.97;;;10.63;;
9918;SDS011;4998;51.024;13.828;2023-01-23T08:05:21;15.17;;;10.40;;
9918;SDS011;4998;51.024;13.828;2023-01-23T08:07:49;16.73;;;10.17;;
9918;SDS011;4998;51.024;13.828;2023-01-23T08:10:16;16.40;;;10.80;;
9918;SDS011;4998;51.024;13.828;2023-01-23T08:12:43;18.43;;;10.67;;
9918;SDS011;4998;51.024;13.828;2023-01-23T08:15:11;17.60;;;11.30;;
9918;SDS011;4998;51.024;13.828;2023-01-23T08:17:38;16.20;;;11.03;;
9918;SDS011;4998;51.024;13.828;2023-01-23T08:20:06;17.33;;;11.30;;
9918;SDS011;4998;51.024;13.828;2023-01-23T08:22:34;16.40;;;11.00;;
9918;SDS011;4998;51.024;13.828;2023-01-23T08:25:06;16.00;;;10.37;;
9918;SDS011;4998;51.024;13.828;2023-01-23T08:27:34;18.00;;;10.87;;
9918;SDS011;4998;51.024;13.828;2023-01-23T08:30:01;14.53;;;10.20;;
9918;SDS011;4998;51.024;13.828;2023-01-23T08:32:29;15.40;;;10.10;;
9918;SDS011;4998;51.024;13.828;2023-01-23T08:34:56;16.50;;;11.50;;
9918;SDS011;4998;51.024;13.828;2023-01-23T08:37:24;18.00;;;11.30;;
9918;SDS011;4998;51.024;13.828;2023-01-23T08:39:51;16.93;;;11.73;;
9918;SDS011;4998;51.024;13.828;2023-01-23T08:42:19;18.13;;;11.40;;
9918;SDS011;4998;51.024;13.828;2023-01-23T08:44:46;15.80;;;10.37;;
9918;SDS011;4998;51.024;13.828;2023-01-23T08:47:14;18.97;;;12.07;;
9918;SDS011;4998;51.024;13.828;2023-01-23T08:49:41;17.37;;;11.73;;
9918;SDS011;4998;51.024;13.828;2023-01-23T08:52:08;18.63;;;11.70;;
9918;SDS011;4998;51.024;13.828;2023-01-23T08:54:35;20.73;;;12.43;;
9918;SDS011;4998;51.024;13.828;2023-01-23T08:57:02;18.43;;;12.30;;
9918;SDS011;4998;51.024;13.828;2023-01-23T08:59:30;19.00;;;10.90;;
9918;SDS011;4998;51.024;13.828;2023-01-23T09:01:57;20.97;;;12.23;;
9918;SDS011;4998;51.024;13.828;2023-01-23T09:04:25;15.70;;;10.47;;
9918;SDS011;4998;51.024;13.828;2023-01-23T09:06:52;16.73;;;10.77;;
9918;SDS011;4998;51.024;13.828;2023-01-23T09:09:19;16.33;;;10.53;;
9918;SDS011;4998;51.024;13.828;2023-01-23T09:11:46;17.00;;;11.00;;
9918;SDS011;4998;51.024;13.828;2023-01-23T09:14:13;16.80;;;11.70;;
9918;SDS011;4998;51.024;13.828;2023-01-23T09:16:41;18.50;;;12.23;;
9918;SDS011;4998;51.024;13.828;2023-01-23T09:19:08;20.37;;;12.47;;
9918;SDS011;4998;51.024;13.828;2023-01-23T09:21:36;18.33;;;10.87;;
9918;SDS011;4998;51.024;13.828;2023-01-23T09:24:04;19.93;;;11.37;;
9918;SDS011;4998;51.024;13.828;2023-01-23T09:26:31;16.73;;;11.03;;
9918;SDS011;4998;51.024;13.828;2023-01-23T09:28:58;17.93;;;12.37;;
9918;SDS011;4998;51.024;13.828;2023-01-23T09:31:25;17.47;;;11.50;;
9918;SDS011;4998;51.024;13.828;2023-01-23T09:33:54;19.70;;;12.37;;
9918;SDS011;4998;51.024;13.828;2023-01-23T09:36:21;19.13;;;12.20;;
9918;SDS011;4998;51.024;13.828;2023-01-23T09:38:49;18.67;;;12.20;;
9918;SDS011;4998;51.024;13.828;2023-01-23T09:41:17;17.23;;;12.00;;
9918;SDS011;4998;51.024;13.828;2023-01-23T09:43:51;18.93;;;12.90;;
9918;SDS011;4998;51.024;13.828;2023-01-23T09:46:23;19.37;;;11.67;;
9918;SDS011;4998;51.024;13.828;2023-01-23T09:48:58;16.10;;;10.53;;
9918;SDS011;4998;51.024;13.828;2023-01-23T09:51:30;18.40;;;11.10;;
9918;SDS011;4998;51.024;13.828;2023-01-23T09:54:12;16.93;;;11.30;;
9918;SDS011;4998;51.024;13.828;2023-01-23T09:56:44;18.80;;;11.30;;
9918;SDS011;4998;51.024;13.828;2023-01-23T09:59:16;16.07;;;10.07;;
9918;SDS011;4998;51.024;13.828;2023-01-23T10:01:49;14.57;;;10.20;;
9918;SDS011;4998;51.024;13.828;2023-01-23T10:04:18;17.30;;;11.07;;
9918;SDS011;4998;51.024;13.828;2023-01-23T10:07:00;18.10;;;11.63;;
9918;SDS011;4998;51.024;13.828;2023-01-23T10:09:46;14.67;;;9.63;;
9918;SDS011;4998;51.024;13.828;2023-01-23T10:12:26;15.07;;;9.77;;
9918;SDS011;4998;51.024;13.828;2023-01-23T10:15:11;18.00;;;10.60;;
9918;SDS011;4998;51.024;13.828;2023-01-23T10:17:46;16.30;;;10.27;;
9918;SDS011;4998;51.024;13.828;2023-01-23T10:20:26;14.40;;;10.40;;
9918;SDS011;4998;51.024;13.828;2023-01-23T10:23:13;16.57;;;11.37;;
9918;SDS011;4998;51.024;13.828;2023-01-23T10:25:57;15.17;;;10.90;;
9918;SDS011;4998;51.024;13.828;2023-01-23T10:28:28;15.63;;;10.20;;
9918;SDS011;4998;51.024;13.828;2023-01-23T10:30:59;16.50;;;11.10;;
9918;SDS011;4998;51.024;13.828;2023-01-23T10:33:33;16.83;;;10.63;;
9918;SDS011;4998;51.024;13.828;2023-01-23T10:36:09;16.30;;;11.40;;
9918;SDS011;4998;51.024;13.828;2023-01-23T10:38:45;14.17;;;10.17;;
9918;SDS011;4998;51.024;13.828;2023-01-23T10:41:18;14.93;;;10.07;;
9918;SDS011;4998;51.024;13.828;2023-01-23T10:43:46;17.33;;;11.00;;
9918;SDS011;4998;51.024;13.828;2023-01-23T10:46:16;15.07;;;10.70;;
9918;SDS011;4998;51.024;13.828;2023-01-23T10:48:45;15.30;;;10.73;;
9918;SDS011;4998;51.024;13.828;2023-01-23T10:51:28;17.60;;;11.20;;
9918;SDS011;4998;51.024;13.828;2023-01-23T10:54:11;15.80;;;11.13;;
9918;SDS011;4998;51.024;13.828;2023-01-23T10:56:47;17.63;;;11.10;;
9918;SDS011;4998;51.024;13.828;2023-01-23T10:59:21;17.97;;;11.57;;
9918;SDS011;4998;51.024;13.828;2023-01-23T11:01:59;17.43;;;11.67;;
9918;SDS011;4998;51.024;13.828;2023-01-23T11:04:30;18.87;;;11.70;;
9918;SDS011;4998;51.024;13.828;2023-01-23T11:07:04;18.77;;;12.27;;
9918;SDS011;4998;51.024;13.828;2023-01-23T11:09:44;20.73;;;12.60;;
9918;SDS011;4998;51.024;13.828;2023-01-23T11:12:17;16.00;;;10.77;;
9918;SDS011;4998;51.024;13.828;2023-01-23T11:14:45;15.70;;;10.97;;
9918;SDS011;4998;51.024;13.828;2023-01-23T11:17:14;20.87;;;12.33;;
9918;SDS011;4998;51.024;13.828;2023-01-23T11:19:44;18.10;;;11.80;;
9918;SDS011;4998;51.024;13.828;2023-01-23T11:22:24;18.60;;;11.40;;
9918;SDS011;4998;51.024;13.828;2023-01-23T11:24:54;20.30;;;11.90;;
9918;SDS011;4998;51.024;13.828;2023-01-23T11:27:21;19.03;;;12.20;;
9918;SDS011;4998;51.024;13.828;2023-01-23T11:29:54;18.47;;;12.40;;
9918;SDS011;4998;51.024;13.828;2023-01-23T11:32:41;20.83;;;12.77;;
9918;SDS011;4998;51.024;13.828;2023-01-23T11:35:13;20.60;;;12.10;;
9918;SDS011;4998;51.024;13.828;2023-01-23T11:37:43;16.90;;;11.83;;
9918;SDS011;4998;51.024;13.828;2023-01-23T11:40:11;20.83;;;12.33;;
9918;SDS011;4998;51.024;13.828;2023-01-23T11:42:40;19.80;;;12.80;;
9918;SDS011;4998;51.024;13.828;2023-01-23T11:45:11;18.60;;;12.63;;
9918;SDS011;4998;51.024;13.828;2023-01-23T11:47:46;18.43;;;12.00;;
9918;SDS011;4998;51.024;13.828;2023-01-23T11:50:28;20.37;;;11.63;;
9918;SDS011;4998;51.024;13.828;2023-01-23T11:53:07;19.13;;;12.50;;
9918;SDS011;4998;51.024;13.828;2023-01-23T11:58:48;17.17;;;10.70;;
9918;SDS011;4998;51.024;13.828;2023-01-23T12:01:35;20.70;;;12.27;;
9918;SDS011;4998;51.024;13.828;2023-01-23T12:07:03;17.37;;;11.40;;
9918;SDS011;4998;51.024;13.828;2023-01-23T12:09:50;14.67;;;9.90;;
9918;SDS011;4998;51.024;13.828;2023-01-23T12:12:28;15.60;;;10.80;;
9918;SDS011;4998;51.024;13.828;2023-01-23T12:15:12;16.77;;;10.77;;
9918;SDS011;4998;51.024;13.828;2023-01-23T12:17:48;19.80;;;12.20;;
9918;SDS011;4998;51.024;13.828;2023-01-23T12:20:25;16.60;;;10.80;;
9918;SDS011;4998;51.024;13.828;2023-01-23T12:23:02;16.57;;;11.57;;
9918;SDS011;4998;51.024;13.828;2023-01-23T12:25:43;18.67;;;10.93;;
9918;SDS011;4998;51.024;13.828;2023-01-23T12:28:23;15.47;;;10.43;;
9918;SDS011;4998;51.024;13.828;2023-01-23T12:31:23;19.67;;;11.83;;
9918;SDS011;4998;51.024;13.828;2023-01-23T12:34:11;17.33;;;10.43;;
9918;SDS011;4998;51.024;13.828;2023-01-23T12:36:57;17.77;;;11.60;;
9918;SDS011;4998;51.024;13.828;2023-01-23T12:39:43;16.53;;;10.83;;
9918;SDS011;4998;51.024;13.828;2023-01-23T12:42:22;16.40;;;11.40;;
9918;SDS011;4998;51.024;13.828;2023-01-23T12:44:56;17.10;;;11.53;;
9918;SDS011;4998;51.024;13.828;2023-01-23T12:47:27;21.50;;;12.17;;
9918;SDS011;4998;51.024;13.828;2023-01-23T12:49:59;21.20;;;13.00;;
9918;SDS011;4998;51.024;13.828;2023-01-23T12:52:33;21.93;;;13.40;;
9918;SDS011;4998;51.024;13.828;2023-01-23T12:55:10;17.73;;;11.83;;
9918;SDS011;4998;51.024;13.828;2023-01-23T12:57:43;16.93;;;11.43;;
9918;SDS011;4998;51.024;13.828;2023-01-23T13:00:18;19.10;;;12.60;;
9918;SDS011;4998;51.024;13.828;2023-01-23T13:02:56;19.77;;;12.07;;
9918;SDS011;4998;51.024;13.828;2023-01-23T13:05:38;19.43;;;11.13;;
9918;SDS011;4998;51.024;13.828;2023-01-23T13:08:16;17.70;;;12.07;;
9918;SDS011;4998;51.024;13.828;2023-01-23T13:10:54;18.00;;;12.03;;
9918;SDS011;4998;51.024;13.828;2023-01-23T13:13:57;20.20;;;12.10;;
9918;SDS011;4998;51.024;13.828;2023-01-23T13:16:25;18.50;;;11.77;;
9918;SDS011;4998;51.024;13.828;2023-01-23T13:18:55;19.13;;;12.40;;
9918;SDS011;4998;51.024;13.828;2023-01-23T13:21:46;19.70;;;12.47;;
9918;SDS011;4998;51.024;13.828;2023-01-23T13:24:37;18.70;;;12.33;;
9918;SDS011;4998;51.024;13.828;2023-01-23T13:27:36;21.50;;;12.63;;
9918;SDS011;4998;51.024;13.828;2023-01-23T13:45:16;20.50;;;13.03;;
9918;SDS011;4998;51.024;13.828;2023-01-23T13:47:57;24.10;;;14.33;;
9918;SDS011;4998;51.024;13.828;2023-01-23T13:51:08;20.67;;;13.03;;
9918;SDS011;4998;51.024;13.828;2023-01-23T13:53:42;20.93;;;14.30;;
9918;SDS011;4998;51.024;13.828;2023-01-23T13:56:29;20.57;;;14.27;;
9918;SDS011;4998;51.024;13.828;2023-01-23T13:59:09;24.57;;;14.90;;
9918;SDS011;4998;51.024;13.828;2023-01-23T14:01:43;19.50;;;13.80;;
9918;SDS011;4998;51.024;13.828;2023-01-23T14:04:35;21.87;;;13.80;;
9918;SDS011;4998;51.024;13.828;2023-01-23T14:07:24;20.90;;;13.47;;
9918;SDS011;4998;51.024;13.828;2023-01-23T14:10:11;20.63;;;14.23;;
9918;SDS011;4998;51.024;13.828;2023-01-23T14:12:46;25.73;;;16.23;;
9918;SDS011;4998;51.024;13.828;2023-01-23T14:15:17;22.33;;;14.73;;
9918;SDS011;4998;51.024;13.828;2023-01-23T14:18:03;22.40;;;14.20;;
9918;SDS011;4998;51.024;13.828;2023-01-23T14:20:35;23.97;;;15.40;;
9918;SDS011;4998;51.024;13.828;2023-01-23T14:23:04;23.43;;;14.80;;
9918;SDS011;4998;51.024;13.828;2023-01-23T14:25:40;23.83;;;14.97;;
9918;SDS011;4998;51.024;13.828;2023-01-23T14:28:11;25.27;;;15.50;;
9918;SDS011;4998;51.024;13.828;2023-01-23T14:30:48;26.47;;;16.93;;
9918;SDS011;4998;51.024;13.828;2023-01-23T14:33:18;27.10;;;15.50;;
9918;SDS011;4998;51.024;13.828;2023-01-23T14:35:46;22.70;;;15.00;;
9918;SDS011;4998;51.024;13.828;2023-01-23T14:38:16;31.30;;;16.53;;
9918;SDS011;4998;51.024;13.828;2023-01-23T14:40:49;30.93;;;16.40;;
9918;SDS011;4998;51.024;13.828;2023-01-23T14:43:17;26.70;;;16.20;;
9918;SDS011;4998;51.024;13.828;2023-01-23T14:45:47;26.83;;;17.23;;
9918;SDS011;4998;51.024;13.828;2023-01-23T14:48:20;29.80;;;15.50;;
9918;SDS011;4998;51.024;13.828;2023-01-23T14:50:48;26.97;;;16.53;;
9918;SDS011;4998;51.024;13.828;2023-01-23T14:53:25;26.27;;;15.77;;
9918;SDS011;4998;51.024;13.828;2023-01-23T14:55:52;27.67;;;16.70;;
9918;SDS011;4998;51.024;13.828;2023-01-23T14:58:22;24.93;;;16.10;;
9918;SDS011;4998;51.024;13.828;2023-01-23T15:00:52;29.30;;;16.47;;
9918;SDS011;4998;51.024;13.828;2023-01-23T15:03:33;24.90;;;15.30;;
9918;SDS011;4998;51.024;13.828;2023-01-23T15:06:07;25.40;;;15.87;;
9918;SDS011;4998;51.024;13.828;2023-01-23T15:08:39;24.57;;;14.50;;
9918;SDS011;4998;51.024;13.828;2023-01-23T15:11:06;26.03;;;16.87;;
9918;SDS011;4998;51.024;13.828;2023-01-23T15:13:40;24.63;;;15.00;;
9918;SDS011;4998;51.024;13.828;2023-01-23T15:16:12;26.67;;;15.57;;
9918;SDS011;4998;51.024;13.828;2023-01-23T15:18:48;25.93;;;15.00;;
9918;SDS011;4998;51.024;13.828;2023-01-23T15:21:27;26.67;;;15.10;;
9918;SDS011;4998;51.024;13.828;2023-01-23T15:24:02;22.50;;;14.73;;